This is the latest recevied weather packets stored in our database for station/object DL2AKT-13. If no packets are shown the sender has not sent any weather packets the latest 10 day(s).
| Time | Temp. | Humidity | Pressure | Rain* | Wind** | Luminosity | Snow |
|---|---|---|---|---|---|---|---|
| 1777787119 | 16.11° C | 51% | 1013.4 hPa | 0 mm | - | - | - |
| 1777781744 | 14.44° C | 51% | 1013.6 hPa | 0 mm | - | - | - |
| 1777776341 | 14.44° C | 50% | 1013.6 hPa | 0 mm | - | - | - |
| 1777770938 | 15° C | 48% | 1014 hPa | 0 mm | - | - | - |
| 1777763718 | 15° C | 49% | 1014.9 hPa | 0 mm | - | - | - |
| 1777755607 | 16.67° C | 45% | 1015.4 hPa | 0 mm | - | - | - |
| 1777747500 | 20° C | 37% | 1015.7 hPa | 0 mm | - | - | - |
| 1777745776 | 21.11° C | 35% | 1015.6 hPa | 0 mm | - | - | - |
| 1777743958 | 22.22° C | 35% | 1015.6 hPa | 0 mm | - | - | - |
| 1777739452 | 23.89° C | 28% | 1016 hPa | 0 mm | - | - | - |
| 1777738551 | 23.89° C | 27% | 1016.1 hPa | 0 mm | - | - | - |
| 1777734046 | 25° C | 27% | 1016.9 hPa | 0 mm | - | - | - |
| 1777724115 | 23.33° C | 31% | 1019.4 hPa | 0 mm | - | - | - |
| 1777723211 | 23.33° C | 32% | 1019.6 hPa | 0 mm | - | - | - |
| 1777722308 | 22.78° C | 31% | 1019.9 hPa | 0 mm | - | - | - |
| 1777719629 | 22.22° C | 35% | 1020.5 hPa | 0 mm | - | - | - |
| 1777717825 | 21.11° C | 37% | 1020.9 hPa | 0 mm | - | - | - |
| 1777716017 | 20.56° C | 39% | 1021.2 hPa | 0 mm | - | - | - |
| 1777715118 | 20° C | 40% | 1021.3 hPa | 0 mm | - | - | - |
| 1777700730 | 13.89° C | 55% | 1022.7 hPa | 0 mm | - | - | - |
| 1777696225 | 11.11° C | 61% | 1022.6 hPa | 0 mm | - | - | - |
| 1777695327 | 11.11° C | 61% | 1022.6 hPa | 0 mm | - | - | - |
| 1777688108 | 12.78° C | 57% | 1023.3 hPa | 0 mm | - | - | - |
| 1777680993 | 12.78° C | 61% | 1024 hPa | 0 mm | - | - | - |
| 1777676451 | 12.78° C | 61% | 1024.4 hPa | 0 mm | - | - | - |
* Rain latest hour (hover to see other rain measurements)
** Current wind speed in m/s (hover to see current wind gust speed)